sensor_id;sensor_type;location;lat;lon;timestamp;P1;durP1;ratioP1;P2;durP2;ratioP2
31724;SDS011;18306;40.960;14.836;2023-06-22T00:02:23;14.95;;;7.65;;
31724;SDS011;18306;40.960;14.836;2023-06-22T00:04:50;10.68;;;6.10;;
31724;SDS011;18306;40.960;14.836;2023-06-22T00:07:20;7.38;;;5.80;;
31724;SDS011;18306;40.960;14.836;2023-06-22T00:09:47;15.27;;;7.55;;
31724;SDS011;18306;40.960;14.836;2023-06-22T00:12:14;11.70;;;7.15;;
31724;SDS011;18306;40.960;14.836;2023-06-22T00:14:41;8.57;;;6.30;;
31724;SDS011;18306;40.960;14.836;2023-06-22T00:17:08;8.57;;;6.05;;
31724;SDS011;18306;40.960;14.836;2023-06-22T00:19:35;9.30;;;6.65;;
31724;SDS011;18306;40.960;14.836;2023-06-22T00:22:02;12.52;;;7.10;;
31724;SDS011;18306;40.960;14.836;2023-06-22T00:24:30;14.00;;;7.60;;
31724;SDS011;18306;40.960;14.836;2023-06-22T00:27:00;12.27;;;6.25;;
31724;SDS011;18306;40.960;14.836;2023-06-22T00:29:27;9.27;;;6.75;;
31724;SDS011;18306;40.960;14.836;2023-06-22T00:31:56;13.43;;;7.97;;
31724;SDS011;18306;40.960;14.836;2023-06-22T00:34:26;9.07;;;5.85;;
31724;SDS011;18306;40.960;14.836;2023-06-22T00:36:53;10.40;;;5.70;;
31724;SDS011;18306;40.960;14.836;2023-06-22T00:39:20;9.95;;;7.35;;
31724;SDS011;18306;40.960;14.836;2023-06-22T00:41:47;8.65;;;6.25;;
31724;SDS011;18306;40.960;14.836;2023-06-22T00:44:14;9.88;;;6.80;;
31724;SDS011;18306;40.960;14.836;2023-06-22T00:46:41;10.07;;;6.53;;
31724;SDS011;18306;40.960;14.836;2023-06-22T00:49:11;20.10;;;7.28;;
31724;SDS011;18306;40.960;14.836;2023-06-22T00:51:39;9.10;;;6.57;;
31724;SDS011;18306;40.960;14.836;2023-06-22T00:54:13;9.35;;;6.40;;
31724;SDS011;18306;40.960;14.836;2023-06-22T00:56:44;12.88;;;6.68;;
31724;SDS011;18306;40.960;14.836;2023-06-22T00:59:12;11.20;;;6.88;;
31724;SDS011;18306;40.960;14.836;2023-06-22T01:01:39;8.65;;;6.43;;
31724;SDS011;18306;40.960;14.836;2023-06-22T01:04:07;10.52;;;6.53;;
31724;SDS011;18306;40.960;14.836;2023-06-22T01:06:35;14.07;;;6.85;;
31724;SDS011;18306;40.960;14.836;2023-06-22T01:12:58;8.13;;;6.55;;
31724;SDS011;18306;40.960;14.836;2023-06-22T01:18:16;11.15;;;7.35;;
31724;SDS011;18306;40.960;14.836;2023-06-22T01:20:45;9.93;;;7.40;;
31724;SDS011;18306;40.960;14.836;2023-06-22T01:23:33;12.60;;;7.25;;
31724;SDS011;18306;40.960;14.836;2023-06-22T01:29:06;12.75;;;8.10;;
31724;SDS011;18306;40.960;14.836;2023-06-22T01:31:35;11.38;;;7.32;;
31724;SDS011;18306;40.960;14.836;2023-06-22T01:34:03;17.13;;;9.35;;
31724;SDS011;18306;40.960;14.836;2023-06-22T01:36:32;14.45;;;8.68;;
31724;SDS011;18306;40.960;14.836;2023-06-22T01:39:03;12.00;;;8.38;;
31724;SDS011;18306;40.960;14.836;2023-06-22T01:41:34;15.60;;;8.27;;
31724;SDS011;18306;40.960;14.836;2023-06-22T01:44:06;14.95;;;7.32;;
31724;SDS011;18306;40.960;14.836;2023-06-22T01:46:35;11.32;;;6.47;;
31724;SDS011;18306;40.960;14.836;2023-06-22T01:49:07;10.07;;;6.90;;
31724;SDS011;18306;40.960;14.836;2023-06-22T01:51:36;13.45;;;7.50;;
31724;SDS011;18306;40.960;14.836;2023-06-22T01:54:05;9.80;;;6.43;;
31724;SDS011;18306;40.960;14.836;2023-06-22T01:56:32;12.07;;;7.00;;
31724;SDS011;18306;40.960;14.836;2023-06-22T02:01:42;14.60;;;8.23;;
31724;SDS011;18306;40.960;14.836;2023-06-22T02:04:27;12.07;;;7.28;;
31724;SDS011;18306;40.960;14.836;2023-06-22T02:07:01;13.00;;;7.53;;
31724;SDS011;18306;40.960;14.836;2023-06-22T02:09:35;11.88;;;7.47;;
31724;SDS011;18306;40.960;14.836;2023-06-22T02:12:09;11.68;;;5.82;;
31724;SDS011;18306;40.960;14.836;2023-06-22T02:14:38;14.43;;;7.53;;
31724;SDS011;18306;40.960;14.836;2023-06-22T02:17:08;11.88;;;6.60;;
31724;SDS011;18306;40.960;14.836;2023-06-22T02:19:36;13.00;;;8.05;;
31724;SDS011;18306;40.960;14.836;2023-06-22T02:22:04;13.50;;;6.68;;
31724;SDS011;18306;40.960;14.836;2023-06-22T02:24:31;8.98;;;5.78;;
31724;SDS011;18306;40.960;14.836;2023-06-22T02:26:59;11.57;;;7.28;;
31724;SDS011;18306;40.960;14.836;2023-06-22T02:29:28;11.32;;;6.85;;
31724;SDS011;18306;40.960;14.836;2023-06-22T02:31:55;11.23;;;7.00;;
31724;SDS011;18306;40.960;14.836;2023-06-22T02:34:22;11.40;;;7.68;;
31724;SDS011;18306;40.960;14.836;2023-06-22T02:36:51;12.27;;;7.53;;
31724;SDS011;18306;40.960;14.836;2023-06-22T02:41:54;12.73;;;7.43;;
31724;SDS011;18306;40.960;14.836;2023-06-22T02:44:22;10.15;;;6.88;;
31724;SDS011;18306;40.960;14.836;2023-06-22T02:46:49;13.02;;;7.57;;
31724;SDS011;18306;40.960;14.836;2023-06-22T02:49:17;8.68;;;6.70;;
31724;SDS011;18306;40.960;14.836;2023-06-22T02:51:46;16.30;;;7.75;;
31724;SDS011;18306;40.960;14.836;2023-06-22T02:54:16;9.23;;;6.68;;
31724;SDS011;18306;40.960;14.836;2023-06-22T02:56:45;16.40;;;7.63;;
31724;SDS011;18306;40.960;14.836;2023-06-22T02:59:12;13.82;;;7.00;;
31724;SDS011;18306;40.960;14.836;2023-06-22T03:01:45;12.07;;;7.25;;
31724;SDS011;18306;40.960;14.836;2023-06-22T03:04:19;13.02;;;7.72;;
31724;SDS011;18306;40.960;14.836;2023-06-22T03:06:46;12.30;;;7.50;;
31724;SDS011;18306;40.960;14.836;2023-06-22T03:09:17;14.82;;;6.88;;
31724;SDS011;18306;40.960;14.836;2023-06-22T03:11:45;11.85;;;6.97;;
31724;SDS011;18306;40.960;14.836;2023-06-22T03:14:12;13.55;;;7.65;;
31724;SDS011;18306;40.960;14.836;2023-06-22T03:16:39;10.57;;;6.47;;
31724;SDS011;18306;40.960;14.836;2023-06-22T03:19:07;15.15;;;6.82;;
31724;SDS011;18306;40.960;14.836;2023-06-22T03:21:34;10.20;;;7.15;;
31724;SDS011;18306;40.960;14.836;2023-06-22T03:24:04;10.50;;;6.85;;
31724;SDS011;18306;40.960;14.836;2023-06-22T03:26:35;19.38;;;6.85;;
31724;SDS011;18306;40.960;14.836;2023-06-22T03:29:02;10.07;;;5.85;;
31724;SDS011;18306;40.960;14.836;2023-06-22T03:31:31;9.73;;;6.72;;
31724;SDS011;18306;40.960;14.836;2023-06-22T03:33:58;11.15;;;7.38;;
31724;SDS011;18306;40.960;14.836;2023-06-22T03:36:25;8.85;;;5.85;;
31724;SDS011;18306;40.960;14.836;2023-06-22T03:38:52;8.77;;;6.20;;
31724;SDS011;18306;40.960;14.836;2023-06-22T03:41:19;11.05;;;7.28;;
31724;SDS011;18306;40.960;14.836;2023-06-22T03:43:48;9.23;;;6.07;;
31724;SDS011;18306;40.960;14.836;2023-06-22T03:46:15;13.40;;;7.07;;
31724;SDS011;18306;40.960;14.836;2023-06-22T03:48:43;17.80;;;6.45;;
31724;SDS011;18306;40.960;14.836;2023-06-22T03:51:10;11.25;;;6.60;;
31724;SDS011;18306;40.960;14.836;2023-06-22T03:53:37;10.00;;;6.32;;
31724;SDS011;18306;40.960;14.836;2023-06-22T03:56:04;11.57;;;6.90;;
31724;SDS011;18306;40.960;14.836;2023-06-22T03:58:31;8.57;;;6.30;;
31724;SDS011;18306;40.960;14.836;2023-06-22T04:00:59;8.75;;;5.78;;
31724;SDS011;18306;40.960;14.836;2023-06-22T04:03:26;14.45;;;6.82;;
31724;SDS011;18306;40.960;14.836;2023-06-22T04:05:53;20.38;;;7.25;;
31724;SDS011;18306;40.960;14.836;2023-06-22T04:08:21;9.52;;;6.22;;
31724;SDS011;18306;40.960;14.836;2023-06-22T04:10:48;10.18;;;6.72;;
31724;SDS011;18306;40.960;14.836;2023-06-22T04:13:16;9.90;;;6.30;;
31724;SDS011;18306;40.960;14.836;2023-06-22T04:15:43;8.73;;;5.95;;
31724;SDS011;18306;40.960;14.836;2023-06-22T04:18:10;9.68;;;6.60;;
31724;SDS011;18306;40.960;14.836;2023-06-22T04:20:40;15.93;;;5.65;;
31724;SDS011;18306;40.960;14.836;2023-06-22T04:23:08;14.23;;;6.53;;
31724;SDS011;18306;40.960;14.836;2023-06-22T04:25:35;12.85;;;6.70;;
31724;SDS011;18306;40.960;14.836;2023-06-22T04:28:02;9.98;;;6.13;;
31724;SDS011;18306;40.960;14.836;2023-06-22T04:30:32;8.32;;;5.85;;
31724;SDS011;18306;40.960;14.836;2023-06-22T04:32:59;11.48;;;5.93;;
31724;SDS011;18306;40.960;14.836;2023-06-22T04:35:26;9.75;;;6.60;;
31724;SDS011;18306;40.960;14.836;2023-06-22T04:37:55;10.77;;;6.22;;
31724;SDS011;18306;40.960;14.836;2023-06-22T04:40:24;10.80;;;6.40;;
31724;SDS011;18306;40.960;14.836;2023-06-22T04:42:51;11.15;;;6.65;;
31724;SDS011;18306;40.960;14.836;2023-06-22T04:45:19;14.73;;;6.32;;
31724;SDS011;18306;40.960;14.836;2023-06-22T04:47:47;13.57;;;7.05;;
31724;SDS011;18306;40.960;14.836;2023-06-22T04:50:14;11.77;;;6.40;;
31724;SDS011;18306;40.960;14.836;2023-06-22T04:52:42;11.05;;;7.28;;
31724;SDS011;18306;40.960;14.836;2023-06-22T04:55:09;15.27;;;7.20;;
31724;SDS011;18306;40.960;14.836;2023-06-22T04:57:36;13.63;;;6.97;;
31724;SDS011;18306;40.960;14.836;2023-06-22T05:00:05;10.93;;;7.15;;
31724;SDS011;18306;40.960;14.836;2023-06-22T05:02:38;10.43;;;6.65;;
31724;SDS011;18306;40.960;14.836;2023-06-22T05:05:06;10.30;;;5.78;;
31724;SDS011;18306;40.960;14.836;2023-06-22T05:07:34;16.45;;;7.47;;
31724;SDS011;18306;40.960;14.836;2023-06-22T05:10:01;12.43;;;5.60;;
31724;SDS011;18306;40.960;14.836;2023-06-22T05:12:31;12.38;;;7.00;;
31724;SDS011;18306;40.960;14.836;2023-06-22T05:14:58;9.32;;;6.55;;
31724;SDS011;18306;40.960;14.836;2023-06-22T05:17:26;10.32;;;6.63;;
31724;SDS011;18306;40.960;14.836;2023-06-22T05:19:53;14.20;;;8.80;;
31724;SDS011;18306;40.960;14.836;2023-06-22T05:22:21;12.05;;;7.75;;
31724;SDS011;18306;40.960;14.836;2023-06-22T05:24:48;16.17;;;8.02;;
31724;SDS011;18306;40.960;14.836;2023-06-22T05:27:15;14.20;;;7.60;;
31724;SDS011;18306;40.960;14.836;2023-06-22T05:29:42;10.02;;;7.35;;
31724;SDS011;18306;40.960;14.836;2023-06-22T05:32:09;14.13;;;7.93;;
31724;SDS011;18306;40.960;14.836;2023-06-22T05:34:36;12.27;;;6.93;;
31724;SDS011;18306;40.960;14.836;2023-06-22T05:37:04;14.15;;;6.90;;
31724;SDS011;18306;40.960;14.836;2023-06-22T05:39:32;15.85;;;7.97;;
31724;SDS011;18306;40.960;14.836;2023-06-22T05:41:59;10.80;;;7.00;;
31724;SDS011;18306;40.960;14.836;2023-06-22T05:44:26;13.15;;;7.20;;
31724;SDS011;18306;40.960;14.836;2023-06-22T05:46:53;12.07;;;7.05;;
31724;SDS011;18306;40.960;14.836;2023-06-22T05:49:20;15.15;;;6.78;;
31724;SDS011;18306;40.960;14.836;2023-06-22T05:51:48;14.10;;;6.93;;
31724;SDS011;18306;40.960;14.836;2023-06-22T05:54:15;15.32;;;7.20;;
31724;SDS011;18306;40.960;14.836;2023-06-22T05:56:44;13.73;;;8.40;;
31724;SDS011;18306;40.960;14.836;2023-06-22T05:59:14;20.17;;;7.43;;
31724;SDS011;18306;40.960;14.836;2023-06-22T06:01:41;17.85;;;8.55;;
31724;SDS011;18306;40.960;14.836;2023-06-22T06:04:08;15.55;;;8.55;;
31724;SDS011;18306;40.960;14.836;2023-06-22T06:06:35;15.05;;;8.18;;
31724;SDS011;18306;40.960;14.836;2023-06-22T06:09:04;16.90;;;8.70;;
31724;SDS011;18306;40.960;14.836;2023-06-22T06:11:31;18.38;;;8.90;;
31724;SDS011;18306;40.960;14.836;2023-06-22T06:13:58;18.80;;;9.75;;
31724;SDS011;18306;40.960;14.836;2023-06-22T06:16:26;15.18;;;8.65;;
31724;SDS011;18306;40.960;14.836;2023-06-22T06:18:53;17.02;;;9.57;;
31724;SDS011;18306;40.960;14.836;2023-06-22T06:21:22;14.18;;;7.78;;
31724;SDS011;18306;40.960;14.836;2023-06-22T06:23:49;14.68;;;8.48;;
31724;SDS011;18306;40.960;14.836;2023-06-22T06:26:16;16.30;;;9.57;;
31724;SDS011;18306;40.960;14.836;2023-06-22T06:28:43;13.32;;;8.98;;
31724;SDS011;18306;40.960;14.836;2023-06-22T06:31:10;16.15;;;7.47;;
31724;SDS011;18306;40.960;14.836;2023-06-22T06:33:38;10.73;;;6.72;;
31724;SDS011;18306;40.960;14.836;2023-06-22T06:36:05;16.30;;;7.50;;
31724;SDS011;18306;40.960;14.836;2023-06-22T06:38:35;13.80;;;8.60;;
31724;SDS011;18306;40.960;14.836;2023-06-22T06:41:02;11.05;;;7.13;;
31724;SDS011;18306;40.960;14.836;2023-06-22T06:43:29;14.90;;;8.50;;
31724;SDS011;18306;40.960;14.836;2023-06-22T06:46:18;14.95;;;7.95;;
31724;SDS011;18306;40.960;14.836;2023-06-22T06:48:46;14.20;;;8.48;;
31724;SDS011;18306;40.960;14.836;2023-06-22T06:51:13;15.95;;;8.15;;
31724;SDS011;18306;40.960;14.836;2023-06-22T06:53:40;15.32;;;7.57;;
31724;SDS011;18306;40.960;14.836;2023-06-22T06:56:07;18.10;;;7.60;;
31724;SDS011;18306;40.960;14.836;2023-06-22T06:58:36;13.70;;;8.30;;
31724;SDS011;18306;40.960;14.836;2023-06-22T07:01:03;13.77;;;7.88;;
31724;SDS011;18306;40.960;14.836;2023-06-22T07:03:31;10.45;;;7.47;;
31724;SDS011;18306;40.960;14.836;2023-06-22T07:05:59;11.20;;;7.07;;
31724;SDS011;18306;40.960;14.836;2023-06-22T07:08:27;16.10;;;6.97;;
31724;SDS011;18306;40.960;14.836;2023-06-22T07:10:54;11.80;;;6.60;;
31724;SDS011;18306;40.960;14.836;2023-06-22T07:13:21;12.13;;;7.22;;
31724;SDS011;18306;40.960;14.836;2023-06-22T07:15:48;13.32;;;7.68;;
31724;SDS011;18306;40.960;14.836;2023-06-22T07:18:15;14.02;;;6.72;;
31724;SDS011;18306;40.960;14.836;2023-06-22T07:20:42;13.90;;;7.20;;
31724;SDS011;18306;40.960;14.836;2023-06-22T07:23:09;18.80;;;7.93;;
31724;SDS011;18306;40.960;14.836;2023-06-22T07:25:36;13.00;;;7.70;;
31724;SDS011;18306;40.960;14.836;2023-06-22T07:28:05;14.88;;;7.40;;
31724;SDS011;18306;40.960;14.836;2023-06-22T07:30:33;9.05;;;6.22;;
31724;SDS011;18306;40.960;14.836;2023-06-22T07:33:01;13.40;;;7.43;;
31724;SDS011;18306;40.960;14.836;2023-06-22T07:35:34;11.70;;;7.07;;
31724;SDS011;18306;40.960;14.836;2023-06-22T07:38:01;11.75;;;6.63;;
31724;SDS011;18306;40.960;14.836;2023-06-22T07:40:29;9.43;;;6.65;;
31724;SDS011;18306;40.960;14.836;2023-06-22T07:42:56;13.45;;;7.35;;
31724;SDS011;18306;40.960;14.836;2023-06-22T07:45:24;16.05;;;7.93;;
31724;SDS011;18306;40.960;14.836;2023-06-22T07:47:51;9.23;;;5.45;;
31724;SDS011;18306;40.960;14.836;2023-06-22T07:50:18;14.98;;;5.88;;
31724;SDS011;18306;40.960;14.836;2023-06-22T07:52:45;12.20;;;6.78;;
31724;SDS011;18306;40.960;14.836;2023-06-22T07:55:14;13.77;;;6.85;;
31724;SDS011;18306;40.960;14.836;2023-06-22T07:57:47;14.98;;;7.13;;
31724;SDS011;18306;40.960;14.836;2023-06-22T08:00:15;9.27;;;7.10;;
31724;SDS011;18306;40.960;14.836;2023-06-22T08:02:44;22.23;;;10.38;;
31724;SDS011;18306;40.960;14.836;2023-06-22T08:05:13;17.08;;;8.20;;
31724;SDS011;18306;40.960;14.836;2023-06-22T08:07:41;17.27;;;9.88;;
31724;SDS011;18306;40.960;14.836;2023-06-22T08:10:12;22.73;;;10.45;;
31724;SDS011;18306;40.960;14.836;2023-06-22T08:12:40;24.33;;;11.00;;
31724;SDS011;18306;40.960;14.836;2023-06-22T08:15:08;24.63;;;10.57;;
31724;SDS011;18306;40.960;14.836;2023-06-22T08:17:38;24.95;;;10.95;;
31724;SDS011;18306;40.960;14.836;2023-06-22T08:20:06;14.20;;;9.35;;
31724;SDS011;18306;40.960;14.836;2023-06-22T08:22:40;22.92;;;9.18;;
31724;SDS011;18306;40.960;14.836;2023-06-22T08:25:09;10.20;;;7.63;;
31724;SDS011;18306;40.960;14.836;2023-06-22T08:27:36;15.50;;;8.35;;
31724;SDS011;18306;40.960;14.836;2023-06-22T08:30:04;15.93;;;9.30;;
31724;SDS011;18306;40.960;14.836;2023-06-22T08:32:32;17.63;;;7.93;;
31724;SDS011;18306;40.960;14.836;2023-06-22T08:34:59;11.43;;;7.55;;
31724;SDS011;18306;40.960;14.836;2023-06-22T08:37:27;18.35;;;9.27;;
31724;SDS011;18306;40.960;14.836;2023-06-22T08:39:58;11.50;;;6.97;;
31724;SDS011;18306;40.960;14.836;2023-06-22T08:42:36;9.95;;;5.57;;
31724;SDS011;18306;40.960;14.836;2023-06-22T08:45:04;15.15;;;6.38;;
31724;SDS011;18306;40.960;14.836;2023-06-22T08:47:32;16.17;;;8.00;;
31724;SDS011;18306;40.960;14.836;2023-06-22T08:49:59;10.55;;;6.00;;
31724;SDS011;18306;40.960;14.836;2023-06-22T08:52:28;11.05;;;5.50;;
31724;SDS011;18306;40.960;14.836;2023-06-22T08:54:56;14.85;;;6.78;;
31724;SDS011;18306;40.960;14.836;2023-06-22T08:57:27;18.55;;;6.15;;
31724;SDS011;18306;40.960;14.836;2023-06-22T08:59:55;10.85;;;6.38;;
31724;SDS011;18306;40.960;14.836;2023-06-22T09:02:25;17.00;;;7.55;;
31724;SDS011;18306;40.960;14.836;2023-06-22T09:04:59;10.82;;;6.13;;
31724;SDS011;18306;40.960;14.836;2023-06-22T09:07:29;10.75;;;6.15;;
31724;SDS011;18306;40.960;14.836;2023-06-22T09:09:56;9.93;;;5.82;;
31724;SDS011;18306;40.960;14.836;2023-06-22T09:12:24;20.52;;;5.85;;
31724;SDS011;18306;40.960;14.836;2023-06-22T09:14:53;10.77;;;5.82;;
31724;SDS011;18306;40.960;14.836;2023-06-22T09:17:21;19.08;;;6.53;;
31724;SDS011;18306;40.960;14.836;2023-06-22T09:19:51;15.10;;;5.82;;
31724;SDS011;18306;40.960;14.836;2023-06-22T09:22:18;12.50;;;6.82;;
31724;SDS011;18306;40.960;14.836;2023-06-22T09:24:45;11.10;;;5.35;;
31724;SDS011;18306;40.960;14.836;2023-06-22T09:27:15;9.23;;;5.82;;
31724;SDS011;18306;40.960;14.836;2023-06-22T09:29:42;9.88;;;5.68;;
31724;SDS011;18306;40.960;14.836;2023-06-22T09:32:09;11.63;;;6.75;;
31724;SDS011;18306;40.960;14.836;2023-06-22T09:34:36;22.90;;;6.50;;
31724;SDS011;18306;40.960;14.836;2023-06-22T09:37:04;11.30;;;5.45;;
31724;SDS011;18306;40.960;14.836;2023-06-22T09:39:31;14.07;;;5.72;;
31724;SDS011;18306;40.960;14.836;2023-06-22T09:41:59;8.63;;;4.70;;
31724;SDS011;18306;40.960;14.836;2023-06-22T09:44:28;13.35;;;5.30;;
31724;SDS011;18306;40.960;14.836;2023-06-22T09:46:55;12.15;;;5.60;;
31724;SDS011;18306;40.960;14.836;2023-06-22T09:49:23;5.07;;;3.83;;
31724;SDS011;18306;40.960;14.836;2023-06-22T09:51:50;11.30;;;5.30;;
31724;SDS011;18306;40.960;14.836;2023-06-22T09:54:18;10.95;;;5.28;;
31724;SDS011;18306;40.960;14.836;2023-06-22T09:56:45;9.00;;;5.65;;
31724;SDS011;18306;40.960;14.836;2023-06-22T09:59:12;8.68;;;4.90;;
31724;SDS011;18306;40.960;14.836;2023-06-22T10:01:39;9.27;;;5.28;;
31724;SDS011;18306;40.960;14.836;2023-06-22T10:04:07;8.23;;;5.28;;
31724;SDS011;18306;40.960;14.836;2023-06-22T10:06:34;14.73;;;5.72;;
31724;SDS011;18306;40.960;14.836;2023-06-22T10:09:01;8.77;;;4.63;;
31724;SDS011;18306;40.960;14.836;2023-06-22T10:11:29;19.55;;;5.30;;
31724;SDS011;18306;40.960;14.836;2023-06-22T10:13:57;9.70;;;4.60;;
31724;SDS011;18306;40.960;14.836;2023-06-22T10:16:29;10.15;;;4.90;;
31724;SDS011;18306;40.960;14.836;2023-06-22T10:18:57;9.05;;;5.13;;
31724;SDS011;18306;40.960;14.836;2023-06-22T10:21:25;7.75;;;4.55;;
31724;SDS011;18306;40.960;14.836;2023-06-22T10:23:54;16.13;;;6.00;;
31724;SDS011;18306;40.960;14.836;2023-06-22T10:26:22;14.07;;;4.95;;
31724;SDS011;18306;40.960;14.836;2023-06-22T10:28:49;10.32;;;4.90;;
31724;SDS011;18306;40.960;14.836;2023-06-22T10:31:17;14.35;;;4.97;;
31724;SDS011;18306;40.960;14.836;2023-06-22T10:33:44;14.98;;;4.70;;
31724;SDS011;18306;40.960;14.836;2023-06-22T10:36:11;11.25;;;4.50;;
31724;SDS011;18306;40.960;14.836;2023-06-22T10:38:38;10.73;;;5.10;;
31724;SDS011;18306;40.960;14.836;2023-06-22T10:41:05;14.07;;;5.35;;
31724;SDS011;18306;40.960;14.836;2023-06-22T10:43:35;13.27;;;5.30;;
31724;SDS011;18306;40.960;14.836;2023-06-22T10:46:03;9.05;;;5.57;;
31724;SDS011;18306;40.960;14.836;2023-06-22T10:48:29;7.35;;;4.40;;
31724;SDS011;18306;40.960;14.836;2023-06-22T10:50:57;13.00;;;4.03;;
31724;SDS011;18306;40.960;14.836;2023-06-22T10:53:24;14.23;;;5.15;;
31724;SDS011;18306;40.960;14.836;2023-06-22T10:55:51;18.38;;;5.05;;
31724;SDS011;18306;40.960;14.836;2023-06-22T10:58:23;10.38;;;4.28;;
31724;SDS011;18306;40.960;14.836;2023-06-22T11:00:50;6.65;;;3.58;;
31724;SDS011;18306;40.960;14.836;2023-06-22T11:03:17;11.43;;;4.90;;
31724;SDS011;18306;40.960;14.836;2023-06-22T11:05:44;13.05;;;4.65;;
31724;SDS011;18306;40.960;14.836;2023-06-22T11:08:13;11.40;;;4.97;;
31724;SDS011;18306;40.960;14.836;2023-06-22T11:10:41;22.27;;;4.90;;
31724;SDS011;18306;40.960;14.836;2023-06-22T11:13:09;7.78;;;4.35;;
31724;SDS011;18306;40.960;14.836;2023-06-22T11:15:36;12.95;;;5.38;;
31724;SDS011;18306;40.960;14.836;2023-06-22T11:18:03;14.90;;;5.18;;
31724;SDS011;18306;40.960;14.836;2023-06-22T11:20:31;12.57;;;4.57;;
31724;SDS011;18306;40.960;14.836;2023-06-22T11:23:00;9.00;;;4.63;;
31724;SDS011;18306;40.960;14.836;2023-06-22T11:25:27;15.02;;;5.28;;
31724;SDS011;18306;40.960;14.836;2023-06-22T11:27:55;12.60;;;4.53;;
31724;SDS011;18306;40.960;14.836;2023-06-22T11:30:22;12.82;;;5.00;;
31724;SDS011;18306;40.960;14.836;2023-06-22T11:32:49;10.55;;;4.90;;
31724;SDS011;18306;40.960;14.836;2023-06-22T11:35:16;10.10;;;4.72;;
31724;SDS011;18306;40.960;14.836;2023-06-22T11:37:43;14.48;;;5.30;;
31724;SDS011;18306;40.960;14.836;2023-06-22T11:40:11;11.10;;;5.32;;
31724;SDS011;18306;40.960;14.836;2023-06-22T11:42:38;12.57;;;4.45;;
31724;SDS011;18306;40.960;14.836;2023-06-22T11:45:06;15.65;;;5.13;;
31724;SDS011;18306;40.960;14.836;2023-06-22T11:47:33;11.38;;;5.20;;
31724;SDS011;18306;40.960;14.836;2023-06-22T11:50:02;13.38;;;4.50;;
31724;SDS011;18306;40.960;14.836;2023-06-22T11:52:30;10.52;;;4.72;;
31724;SDS011;18306;40.960;14.836;2023-06-22T11:54:57;10.30;;;4.35;;
31724;SDS011;18306;40.960;14.836;2023-06-22T11:57:25;12.77;;;3.70;;
31724;SDS011;18306;40.960;14.836;2023-06-22T11:59:52;7.78;;;4.53;;
31724;SDS011;18306;40.960;14.836;2023-06-22T12:02:19;8.13;;;4.40;;
31724;SDS011;18306;40.960;14.836;2023-06-22T12:04:46;12.18;;;3.90;;
31724;SDS011;18306;40.960;14.836;2023-06-22T12:07:13;13.23;;;4.38;;
31724;SDS011;18306;40.960;14.836;2023-06-22T12:09:40;14.80;;;4.05;;
31724;SDS011;18306;40.960;14.836;2023-06-22T12:12:08;16.25;;;4.80;;
31724;SDS011;18306;40.960;14.836;2023-06-22T12:14:35;7.30;;;4.00;;
31724;SDS011;18306;40.960;14.836;2023-06-22T12:17:02;10.90;;;4.57;;
31724;SDS011;18306;40.960;14.836;2023-06-22T12:19:29;16.48;;;4.60;;
31724;SDS011;18306;40.960;14.836;2023-06-22T12:21:57;11.15;;;4.15;;
31724;SDS011;18306;40.960;14.836;2023-06-22T12:24:24;8.85;;;4.30;;
31724;SDS011;18306;40.960;14.836;2023-06-22T12:26:51;10.30;;;4.78;;
31724;SDS011;18306;40.960;14.836;2023-06-22T12:29:19;16.70;;;4.75;;
31724;SDS011;18306;40.960;14.836;2023-06-22T12:31:45;16.95;;;4.13;;
31724;SDS011;18306;40.960;14.836;2023-06-22T12:34:13;8.88;;;4.38;;
31724;SDS011;18306;40.960;14.836;2023-06-22T12:36:40;9.60;;;3.42;;
31724;SDS011;18306;40.960;14.836;2023-06-22T12:39:07;10.50;;;3.70;;
31724;SDS011;18306;40.960;14.836;2023-06-22T12:41:34;10.82;;;3.67;;
31724;SDS011;18306;40.960;14.836;2023-06-22T12:44:01;10.70;;;3.78;;
31724;SDS011;18306;40.960;14.836;2023-06-22T12:46:29;12.40;;;3.70;;
31724;SDS011;18306;40.960;14.836;2023-06-22T12:49:03;15.82;;;4.00;;
31724;SDS011;18306;40.960;14.836;2023-06-22T12:51:31;13.75;;;4.38;;
31724;SDS011;18306;40.960;14.836;2023-06-22T12:53:58;15.85;;;4.40;;
31724;SDS011;18306;40.960;14.836;2023-06-22T12:56:25;7.55;;;3.65;;
31724;SDS011;18306;40.960;14.836;2023-06-22T12:58:53;12.57;;;4.70;;
31724;SDS011;18306;40.960;14.836;2023-06-22T13:01:20;7.32;;;4.10;;
31724;SDS011;18306;40.960;14.836;2023-06-22T13:03:48;18.35;;;4.82;;
31724;SDS011;18306;40.960;14.836;2023-06-22T13:06:15;7.50;;;3.85;;
31724;SDS011;18306;40.960;14.836;2023-06-22T13:08:45;13.88;;;4.05;;
31724;SDS011;18306;40.960;14.836;2023-06-22T13:11:12;6.80;;;3.92;;
31724;SDS011;18306;40.960;14.836;2023-06-22T13:13:40;15.88;;;4.40;;
31724;SDS011;18306;40.960;14.836;2023-06-22T13:16:08;15.05;;;4.00;;
31724;SDS011;18306;40.960;14.836;2023-06-22T13:18:35;10.82;;;4.07;;
31724;SDS011;18306;40.960;14.836;2023-06-22T13:21:02;10.43;;;4.10;;
31724;SDS011;18306;40.960;14.836;2023-06-22T13:23:30;11.10;;;4.68;;
31724;SDS011;18306;40.960;14.836;2023-06-22T13:25:57;11.15;;;4.70;;
31724;SDS011;18306;40.960;14.836;2023-06-22T13:28:24;7.88;;;4.22;;
31724;SDS011;18306;40.960;14.836;2023-06-22T13:30:52;18.40;;;5.00;;
31724;SDS011;18306;40.960;14.836;2023-06-22T13:33:19;9.55;;;3.47;;
31724;SDS011;18306;40.960;14.836;2023-06-22T13:35:46;13.25;;;4.25;;
31724;SDS011;18306;40.960;14.836;2023-06-22T13:38:13;11.90;;;3.92;;
31724;SDS011;18306;40.960;14.836;2023-06-22T13:40:40;15.02;;;5.65;;
31724;SDS011;18306;40.960;14.836;2023-06-22T13:43:07;13.88;;;5.78;;
31724;SDS011;18306;40.960;14.836;2023-06-22T13:45:35;15.20;;;4.60;;
31724;SDS011;18306;40.960;14.836;2023-06-22T13:48:02;13.38;;;6.10;;
31724;SDS011;18306;40.960;14.836;2023-06-22T13:50:29;13.48;;;6.45;;
31724;SDS011;18306;40.960;14.836;2023-06-22T13:52:56;11.63;;;5.88;;
31724;SDS011;18306;40.960;14.836;2023-06-22T13:55:23;21.20;;;7.43;;
31724;SDS011;18306;40.960;14.836;2023-06-22T13:57:51;11.48;;;6.53;;
31724;SDS011;18306;40.960;14.836;2023-06-22T14:00:18;15.82;;;8.27;;
31724;SDS011;18306;40.960;14.836;2023-06-22T14:02:46;16.38;;;7.53;;
31724;SDS011;18306;40.960;14.836;2023-06-22T14:05:13;15.13;;;8.15;;
31724;SDS011;18306;40.960;14.836;2023-06-22T14:07:40;14.70;;;7.45;;
31724;SDS011;18306;40.960;14.836;2023-06-22T14:10:07;13.38;;;6.63;;
31724;SDS011;18306;40.960;14.836;2023-06-22T14:12:34;10.70;;;6.40;;
31724;SDS011;18306;40.960;14.836;2023-06-22T14:15:01;21.73;;;7.63;;
31724;SDS011;18306;40.960;14.836;2023-06-22T14:17:29;21.00;;;7.43;;
31724;SDS011;18306;40.960;14.836;2023-06-22T14:19:57;9.75;;;6.13;;
31724;SDS011;18306;40.960;14.836;2023-06-22T14:22:25;16.00;;;7.60;;
31724;SDS011;18306;40.960;14.836;2023-06-22T14:24:55;11.98;;;7.30;;
31724;SDS011;18306;40.960;14.836;2023-06-22T14:27:24;9.13;;;6.07;;
31724;SDS011;18306;40.960;14.836;2023-06-22T14:29:51;8.98;;;6.68;;
31724;SDS011;18306;40.960;14.836;2023-06-22T14:32:18;11.20;;;7.72;;
31724;SDS011;18306;40.960;14.836;2023-06-22T14:34:45;12.50;;;7.60;;
31724;SDS011;18306;40.960;14.836;2023-06-22T14:37:12;12.30;;;7.57;;
31724;SDS011;18306;40.960;14.836;2023-06-22T14:39:51;16.20;;;7.15;;
31724;SDS011;18306;40.960;14.836;2023-06-22T14:42:20;14.65;;;8.52;;
31724;SDS011;18306;40.960;14.836;2023-06-22T14:44:48;10.98;;;7.78;;